sensor_id;sensor_type;location;lat;lon;timestamp;temperature;humidity
4643;DHT22;2334;48.710;9.622;2023-04-08T00:01:14;7.80;99.90
4643;DHT22;2334;48.710;9.622;2023-04-08T00:03:41;7.80;99.90
4643;DHT22;2334;48.710;9.622;2023-04-08T00:06:11;7.80;99.90
4643;DHT22;2334;48.710;9.622;2023-04-08T00:08:37;7.80;99.90
4643;DHT22;2334;48.710;9.622;2023-04-08T00:11:06;7.80;99.90
4643;DHT22;2334;48.710;9.622;2023-04-08T00:13:35;7.80;99.90
4643;DHT22;2334;48.710;9.622;2023-04-08T00:16:02;7.80;99.90
4643;DHT22;2334;48.710;9.622;2023-04-08T00:18:29;7.80;99.90
4643;DHT22;2334;48.710;9.622;2023-04-08T00:20:55;7.70;99.90
4643;DHT22;2334;48.710;9.622;2023-04-08T00:23:22;7.70;99.90
4643;DHT22;2334;48.710;9.622;2023-04-08T00:25:49;7.70;99.90
4643;DHT22;2334;48.710;9.622;2023-04-08T00:28:18;7.80;99.90
4643;DHT22;2334;48.710;9.622;2023-04-08T00:30:45;7.80;99.90
4643;DHT22;2334;48.710;9.622;2023-04-08T00:33:12;7.80;99.90
4643;DHT22;2334;48.710;9.622;2023-04-08T00:35:39;7.70;99.90
4643;DHT22;2334;48.710;9.622;2023-04-08T00:38:06;7.70;99.90
4643;DHT22;2334;48.710;9.622;2023-04-08T00:40:33;7.80;99.90
4643;DHT22;2334;48.710;9.622;2023-04-08T00:43:00;7.80;99.90
4643;DHT22;2334;48.710;9.622;2023-04-08T00:45:29;7.80;99.90
4643;DHT22;2334;48.710;9.622;2023-04-08T00:47:56;7.80;99.90
4643;DHT22;2334;48.710;9.622;2023-04-08T00:50:23;7.70;99.90
4643;DHT22;2334;48.710;9.622;2023-04-08T00:52:50;7.70;99.90
4643;DHT22;2334;48.710;9.622;2023-04-08T00:55:17;7.70;99.90
4643;DHT22;2334;48.710;9.622;2023-04-08T00:57:44;7.70;99.90
4643;DHT22;2334;48.710;9.622;2023-04-08T01:00:13;7.70;99.90
4643;DHT22;2334;48.710;9.622;2023-04-08T01:02:48;7.70;99.90
4643;DHT22;2334;48.710;9.622;2023-04-08T01:05:22;7.70;99.90
4643;DHT22;2334;48.710;9.622;2023-04-08T01:07:51;7.60;99.90
4643;DHT22;2334;48.710;9.622;2023-04-08T01:10:21;7.70;99.90
4643;DHT22;2334;48.710;9.622;2023-04-08T01:12:51;7.70;99.90
4643;DHT22;2334;48.710;9.622;2023-04-08T01:15:20;7.70;99.90
4643;DHT22;2334;48.710;9.622;2023-04-08T01:17:50;7.70;99.90
4643;DHT22;2334;48.710;9.622;2023-04-08T01:20:18;7.60;99.90
4643;DHT22;2334;48.710;9.622;2023-04-08T01:22:57;7.60;99.90
4643;DHT22;2334;48.710;9.622;2023-04-08T01:25:30;7.60;99.90
4643;DHT22;2334;48.710;9.622;2023-04-08T01:27:59;7.60;99.90
4643;DHT22;2334;48.710;9.622;2023-04-08T01:30:27;7.60;99.90
4643;DHT22;2334;48.710;9.622;2023-04-08T01:32:57;7.60;99.90
4643;DHT22;2334;48.710;9.622;2023-04-08T01:35:25;7.70;99.90
4643;DHT22;2334;48.710;9.622;2023-04-08T01:37:53;7.70;99.90
4643;DHT22;2334;48.710;9.622;2023-04-08T01:40:21;7.70;99.90
4643;DHT22;2334;48.710;9.622;2023-04-08T01:42:49;7.70;99.90
4643;DHT22;2334;48.710;9.622;2023-04-08T01:45:20;7.60;99.90
4643;DHT22;2334;48.710;9.622;2023-04-08T01:47:48;7.60;99.90
4643;DHT22;2334;48.710;9.622;2023-04-08T01:50:16;7.60;99.90
4643;DHT22;2334;48.710;9.622;2023-04-08T01:52:45;7.60;99.90
4643;DHT22;2334;48.710;9.622;2023-04-08T01:55:13;7.60;99.90
4643;DHT22;2334;48.710;9.622;2023-04-08T01:57:43;7.60;99.90
4643;DHT22;2334;48.710;9.622;2023-04-08T02:00:16;7.60;99.90
4643;DHT22;2334;48.710;9.622;2023-04-08T02:02:46;7.60;99.90
4643;DHT22;2334;48.710;9.622;2023-04-08T02:05:14;7.60;99.90
4643;DHT22;2334;48.710;9.622;2023-04-08T02:07:40;7.60;99.90
4643;DHT22;2334;48.710;9.622;2023-04-08T02:10:08;7.60;99.90
4643;DHT22;2334;48.710;9.622;2023-04-08T02:12:35;7.60;99.90
4643;DHT22;2334;48.710;9.622;2023-04-08T02:15:02;7.60;99.90
4643;DHT22;2334;48.710;9.622;2023-04-08T02:17:34;7.60;99.90
4643;DHT22;2334;48.710;9.622;2023-04-08T02:20:06;7.60;99.90
4643;DHT22;2334;48.710;9.622;2023-04-08T02:22:38;7.60;99.90
4643;DHT22;2334;48.710;9.622;2023-04-08T02:25:08;7.60;99.90
4643;DHT22;2334;48.710;9.622;2023-04-08T02:27:38;7.60;99.90
4643;DHT22;2334;48.710;9.622;2023-04-08T02:30:07;7.60;99.90
4643;DHT22;2334;48.710;9.622;2023-04-08T02:32:36;7.60;99.90
4643;DHT22;2334;48.710;9.622;2023-04-08T02:35:06;7.60;99.90
4643;DHT22;2334;48.710;9.622;2023-04-08T02:37:33;7.60;99.90
4643;DHT22;2334;48.710;9.622;2023-04-08T02:40:02;7.60;99.90
4643;DHT22;2334;48.710;9.622;2023-04-08T02:42:29;7.60;99.90
4643;DHT22;2334;48.710;9.622;2023-04-08T02:44:56;7.60;99.90
4643;DHT22;2334;48.710;9.622;2023-04-08T02:47:23;7.50;99.90
4643;DHT22;2334;48.710;9.622;2023-04-08T02:49:50;7.60;99.90
4643;DHT22;2334;48.710;9.622;2023-04-08T02:52:21;7.50;99.90
4643;DHT22;2334;48.710;9.622;2023-04-08T02:54:47;7.60;99.90
4643;DHT22;2334;48.710;9.622;2023-04-08T02:57:14;7.50;99.90
4643;DHT22;2334;48.710;9.622;2023-04-08T02:59:41;7.60;99.90
4643;DHT22;2334;48.710;9.622;2023-04-08T03:02:08;7.50;99.90
4643;DHT22;2334;48.710;9.622;2023-04-08T03:04:35;7.50;99.90
4643;DHT22;2334;48.710;9.622;2023-04-08T03:07:02;7.50;99.90
4643;DHT22;2334;48.710;9.622;2023-04-08T03:09:30;7.50;99.90
4643;DHT22;2334;48.710;9.622;2023-04-08T03:11:57;7.50;99.90
4643;DHT22;2334;48.710;9.622;2023-04-08T03:14:24;7.50;99.90
4643;DHT22;2334;48.710;9.622;2023-04-08T03:16:51;7.50;99.90
4643;DHT22;2334;48.710;9.622;2023-04-08T03:19:18;7.50;99.90
4643;DHT22;2334;48.710;9.622;2023-04-08T03:21:45;7.50;99.90
4643;DHT22;2334;48.710;9.622;2023-04-08T03:24:11;7.50;99.90
4643;DHT22;2334;48.710;9.622;2023-04-08T03:26:40;7.50;99.90
4643;DHT22;2334;48.710;9.622;2023-04-08T03:29:06;7.50;99.90
4643;DHT22;2334;48.710;9.622;2023-04-08T03:31:34;7.50;99.90
4643;DHT22;2334;48.710;9.622;2023-04-08T03:34:01;7.40;99.90
4643;DHT22;2334;48.710;9.622;2023-04-08T03:36:28;7.40;99.90
4643;DHT22;2334;48.710;9.622;2023-04-08T03:38:55;7.40;99.90
4643;DHT22;2334;48.710;9.622;2023-04-08T03:41:22;7.40;99.90
4643;DHT22;2334;48.710;9.622;2023-04-08T03:43:50;7.40;99.90
4643;DHT22;2334;48.710;9.622;2023-04-08T03:46:17;7.40;99.90
4643;DHT22;2334;48.710;9.622;2023-04-08T03:48:44;7.30;99.90
4643;DHT22;2334;48.710;9.622;2023-04-08T03:51:11;7.30;99.90
4643;DHT22;2334;48.710;9.622;2023-04-08T03:53:37;7.30;99.90
4643;DHT22;2334;48.710;9.622;2023-04-08T03:56:05;7.30;99.90
4643;DHT22;2334;48.710;9.622;2023-04-08T03:58:32;7.30;99.90
4643;DHT22;2334;48.710;9.622;2023-04-08T04:01:00;7.40;99.90
4643;DHT22;2334;48.710;9.622;2023-04-08T04:03:27;7.40;99.90
4643;DHT22;2334;48.710;9.622;2023-04-08T04:05:54;7.40;99.90
4643;DHT22;2334;48.710;9.622;2023-04-08T04:08:21;7.40;99.90
4643;DHT22;2334;48.710;9.622;2023-04-08T04:10:47;7.40;99.90
4643;DHT22;2334;48.710;9.622;2023-04-08T04:13:14;7.40;99.90
4643;DHT22;2334;48.710;9.622;2023-04-08T04:15:41;7.30;99.90
4643;DHT22;2334;48.710;9.622;2023-04-08T04:18:10;7.30;99.90
4643;DHT22;2334;48.710;9.622;2023-04-08T04:20:38;7.30;99.90
4643;DHT22;2334;48.710;9.622;2023-04-08T04:23:06;7.40;99.90
4643;DHT22;2334;48.710;9.622;2023-04-08T04:25:33;7.40;99.90
4643;DHT22;2334;48.710;9.622;2023-04-08T04:27:59;7.30;99.90
4643;DHT22;2334;48.710;9.622;2023-04-08T04:30:27;7.30;99.90
4643;DHT22;2334;48.710;9.622;2023-04-08T04:32:56;7.40;99.90
4643;DHT22;2334;48.710;9.622;2023-04-08T04:35:24;7.40;99.90
4643;DHT22;2334;48.710;9.622;2023-04-08T04:37:51;7.30;99.90
4643;DHT22;2334;48.710;9.622;2023-04-08T04:40:18;7.30;99.90
4643;DHT22;2334;48.710;9.622;2023-04-08T04:42:45;7.30;99.90
4643;DHT22;2334;48.710;9.622;2023-04-08T04:45:13;7.30;99.90
4643;DHT22;2334;48.710;9.622;2023-04-08T04:47:40;7.30;99.90
4643;DHT22;2334;48.710;9.622;2023-04-08T04:50:08;7.30;99.90
4643;DHT22;2334;48.710;9.622;2023-04-08T04:52:36;7.30;99.90
4643;DHT22;2334;48.710;9.622;2023-04-08T04:55:04;7.30;99.90
4643;DHT22;2334;48.710;9.622;2023-04-08T04:57:31;7.30;99.90
4643;DHT22;2334;48.710;9.622;2023-04-08T04:59:58;7.30;99.90
4643;DHT22;2334;48.710;9.622;2023-04-08T05:02:25;7.30;99.90
4643;DHT22;2334;48.710;9.622;2023-04-08T05:04:52;7.40;99.90
4643;DHT22;2334;48.710;9.622;2023-04-08T05:07:20;7.40;99.90
4643;DHT22;2334;48.710;9.622;2023-04-08T05:09:49;7.40;99.90
4643;DHT22;2334;48.710;9.622;2023-04-08T05:12:15;7.40;99.90
4643;DHT22;2334;48.710;9.622;2023-04-08T05:14:42;7.40;99.90
4643;DHT22;2334;48.710;9.622;2023-04-08T05:17:10;7.40;99.90
4643;DHT22;2334;48.710;9.622;2023-04-08T05:19:37;7.40;99.90
4643;DHT22;2334;48.710;9.622;2023-04-08T05:22:04;7.50;99.90
4643;DHT22;2334;48.710;9.622;2023-04-08T05:24:31;7.50;99.90
4643;DHT22;2334;48.710;9.622;2023-04-08T05:26:59;7.50;99.90
4643;DHT22;2334;48.710;9.622;2023-04-08T05:29:26;7.40;99.90
4643;DHT22;2334;48.710;9.622;2023-04-08T05:31:53;7.40;99.90
4643;DHT22;2334;48.710;9.622;2023-04-08T05:34:20;7.50;99.90
4643;DHT22;2334;48.710;9.622;2023-04-08T05:36:48;7.40;99.90
4643;DHT22;2334;48.710;9.622;2023-04-08T05:39:16;7.40;99.90
4643;DHT22;2334;48.710;9.622;2023-04-08T05:41:43;7.40;99.90
4643;DHT22;2334;48.710;9.622;2023-04-08T05:44:12;7.40;99.90
4643;DHT22;2334;48.710;9.622;2023-04-08T05:46:39;7.50;99.90
4643;DHT22;2334;48.710;9.622;2023-04-08T05:49:06;7.50;99.90
4643;DHT22;2334;48.710;9.622;2023-04-08T05:51:32;7.50;99.90
4643;DHT22;2334;48.710;9.622;2023-04-08T05:53:59;7.40;99.90
4643;DHT22;2334;48.710;9.622;2023-04-08T05:56:26;7.50;99.90
4643;DHT22;2334;48.710;9.622;2023-04-08T05:58:53;7.50;99.90
4643;DHT22;2334;48.710;9.622;2023-04-08T06:01:22;7.50;99.90
4643;DHT22;2334;48.710;9.622;2023-04-08T06:03:49;7.40;99.90
4643;DHT22;2334;48.710;9.622;2023-04-08T06:06:18;7.50;99.90
4643;DHT22;2334;48.710;9.622;2023-04-08T06:08:45;7.40;99.90
4643;DHT22;2334;48.710;9.622;2023-04-08T06:11:11;7.40;99.90
4643;DHT22;2334;48.710;9.622;2023-04-08T06:13:38;7.50;99.90
4643;DHT22;2334;48.710;9.622;2023-04-08T06:16:10;7.50;99.90
4643;DHT22;2334;48.710;9.622;2023-04-08T06:18:38;7.50;99.90
4643;DHT22;2334;48.710;9.622;2023-04-08T06:21:05;7.60;99.90
4643;DHT22;2334;48.710;9.622;2023-04-08T06:23:32;7.60;99.90
4643;DHT22;2334;48.710;9.622;2023-04-08T06:25:59;7.60;99.90
4643;DHT22;2334;48.710;9.622;2023-04-08T06:28:28;7.60;99.90
4643;DHT22;2334;48.710;9.622;2023-04-08T06:30:55;7.60;99.90
4643;DHT22;2334;48.710;9.622;2023-04-08T06:33:22;7.60;99.90
4643;DHT22;2334;48.710;9.622;2023-04-08T06:35:50;7.60;99.90
4643;DHT22;2334;48.710;9.622;2023-04-08T06:38:17;7.60;99.90
4643;DHT22;2334;48.710;9.622;2023-04-08T06:40:44;7.60;99.90
4643;DHT22;2334;48.710;9.622;2023-04-08T06:43:10;7.60;99.90
4643;DHT22;2334;48.710;9.622;2023-04-08T06:45:38;7.70;99.90
4643;DHT22;2334;48.710;9.622;2023-04-08T06:48:05;7.70;99.90
4643;DHT22;2334;48.710;9.622;2023-04-08T06:50:34;7.70;99.90
4643;DHT22;2334;48.710;9.622;2023-04-08T06:53:02;7.70;99.90
4643;DHT22;2334;48.710;9.622;2023-04-08T06:55:29;7.70;99.90
4643;DHT22;2334;48.710;9.622;2023-04-08T06:57:56;7.70;99.90
4643;DHT22;2334;48.710;9.622;2023-04-08T07:00:23;7.80;99.90
4643;DHT22;2334;48.710;9.622;2023-04-08T07:02:49;7.80;99.90
4643;DHT22;2334;48.710;9.622;2023-04-08T07:05:17;7.70;99.90
4643;DHT22;2334;48.710;9.622;2023-04-08T07:07:44;7.70;99.90
4643;DHT22;2334;48.710;9.622;2023-04-08T07:10:13;7.80;99.90
4643;DHT22;2334;48.710;9.622;2023-04-08T07:12:40;7.80;99.90
4643;DHT22;2334;48.710;9.622;2023-04-08T07:15:08;7.80;99.90
4643;DHT22;2334;48.710;9.622;2023-04-08T07:17:35;7.90;99.90
4643;DHT22;2334;48.710;9.622;2023-04-08T07:20:02;8.00;99.90
4643;DHT22;2334;48.710;9.622;2023-04-08T07:22:29;8.10;99.90
4643;DHT22;2334;48.710;9.622;2023-04-08T07:24:56;8.10;99.90
4643;DHT22;2334;48.710;9.622;2023-04-08T07:27:24;8.00;99.90
4643;DHT22;2334;48.710;9.622;2023-04-08T07:29:52;8.00;99.90
4643;DHT22;2334;48.710;9.622;2023-04-08T07:32:19;8.00;99.90
4643;DHT22;2334;48.710;9.622;2023-04-08T07:34:46;8.00;99.90
4643;DHT22;2334;48.710;9.622;2023-04-08T07:37:13;8.00;99.90
4643;DHT22;2334;48.710;9.622;2023-04-08T07:39:40;8.00;99.90
4643;DHT22;2334;48.710;9.622;2023-04-08T07:42:07;8.00;99.90
4643;DHT22;2334;48.710;9.622;2023-04-08T07:44:35;8.10;99.90
4643;DHT22;2334;48.710;9.622;2023-04-08T07:47:02;8.20;99.90
4643;DHT22;2334;48.710;9.622;2023-04-08T07:49:29;8.20;99.90
4643;DHT22;2334;48.710;9.622;2023-04-08T07:51:56;8.10;99.90
4643;DHT22;2334;48.710;9.622;2023-04-08T07:54:23;8.20;99.90
4643;DHT22;2334;48.710;9.622;2023-04-08T07:56:50;8.40;99.90
4643;DHT22;2334;48.710;9.622;2023-04-08T07:59:17;8.40;99.90
4643;DHT22;2334;48.710;9.622;2023-04-08T08:01:45;8.30;99.90
4643;DHT22;2334;48.710;9.622;2023-04-08T08:04:12;8.30;99.90
4643;DHT22;2334;48.710;9.622;2023-04-08T08:06:39;8.30;99.90
4643;DHT22;2334;48.710;9.622;2023-04-08T08:09:06;8.30;99.90
4643;DHT22;2334;48.710;9.622;2023-04-08T08:11:32;8.40;99.90
4643;DHT22;2334;48.710;9.622;2023-04-08T08:13:59;8.50;99.90
4643;DHT22;2334;48.710;9.622;2023-04-08T08:16:27;8.80;99.90
4643;DHT22;2334;48.710;9.622;2023-04-08T08:18:55;9.00;99.90
4643;DHT22;2334;48.710;9.622;2023-04-08T08:21:22;9.10;99.90
4643;DHT22;2334;48.710;9.622;2023-04-08T08:23:51;9.20;99.90
4643;DHT22;2334;48.710;9.622;2023-04-08T08:26:19;9.40;99.90
4643;DHT22;2334;48.710;9.622;2023-04-08T08:28:46;9.60;99.90
4643;DHT22;2334;48.710;9.622;2023-04-08T08:31:13;9.90;99.90
4643;DHT22;2334;48.710;9.622;2023-04-08T08:33:39;9.90;99.90
4643;DHT22;2334;48.710;9.622;2023-04-08T08:36:08;10.00;99.90
4643;DHT22;2334;48.710;9.622;2023-04-08T08:38:34;10.00;99.90
4643;DHT22;2334;48.710;9.622;2023-04-08T08:41:01;10.00;99.90
4643;DHT22;2334;48.710;9.622;2023-04-08T08:43:29;9.80;99.90
4643;DHT22;2334;48.710;9.622;2023-04-08T08:45:58;9.80;99.90
4643;DHT22;2334;48.710;9.622;2023-04-08T08:48:25;10.00;99.90
4643;DHT22;2334;48.710;9.622;2023-04-08T08:50:52;10.00;99.90
4643;DHT22;2334;48.710;9.622;2023-04-08T08:53:20;10.10;99.90
4643;DHT22;2334;48.710;9.622;2023-04-08T08:55:48;10.20;99.90
4643;DHT22;2334;48.710;9.622;2023-04-08T08:58:15;10.40;99.90
4643;DHT22;2334;48.710;9.622;2023-04-08T09:00:42;10.40;99.90
4643;DHT22;2334;48.710;9.622;2023-04-08T09:03:16;10.50;99.90
4643;DHT22;2334;48.710;9.622;2023-04-08T09:05:50;10.50;99.90
4643;DHT22;2334;48.710;9.622;2023-04-08T09:08:30;10.50;99.90
4643;DHT22;2334;48.710;9.622;2023-04-08T09:11:11;10.40;99.90
4643;DHT22;2334;48.710;9.622;2023-04-08T09:13:38;10.60;99.90
4643;DHT22;2334;48.710;9.622;2023-04-08T09:16:06;10.50;99.90
4643;DHT22;2334;48.710;9.622;2023-04-08T09:18:35;10.30;99.90
4643;DHT22;2334;48.710;9.622;2023-04-08T09:21:03;10.40;99.90
4643;DHT22;2334;48.710;9.622;2023-04-08T09:23:46;10.50;99.90
4643;DHT22;2334;48.710;9.622;2023-04-08T09:26:14;10.70;99.90
4643;DHT22;2334;48.710;9.622;2023-04-08T09:28:43;10.90;99.90
4643;DHT22;2334;48.710;9.622;2023-04-08T09:31:20;10.90;99.90
4643;DHT22;2334;48.710;9.622;2023-04-08T09:33:48;10.80;99.90
4643;DHT22;2334;48.710;9.622;2023-04-08T09:36:16;11.20;99.90
4643;DHT22;2334;48.710;9.622;2023-04-08T09:38:44;11.30;99.90
4643;DHT22;2334;48.710;9.622;2023-04-08T09:41:13;11.40;99.90
4643;DHT22;2334;48.710;9.622;2023-04-08T09:43:42;11.60;99.90
4643;DHT22;2334;48.710;9.622;2023-04-08T09:46:14;11.70;99.90
4643;DHT22;2334;48.710;9.622;2023-04-08T09:48:47;11.80;99.90
4643;DHT22;2334;48.710;9.622;2023-04-08T09:51:15;11.70;99.90
4643;DHT22;2334;48.710;9.622;2023-04-08T09:53:49;11.60;99.90
4643;DHT22;2334;48.710;9.622;2023-04-08T09:56:18;11.50;99.90
4643;DHT22;2334;48.710;9.622;2023-04-08T09:58:51;11.50;99.90
4643;DHT22;2334;48.710;9.622;2023-04-08T10:01:23;11.60;99.90
4643;DHT22;2334;48.710;9.622;2023-04-08T10:03:54;11.70;99.90
4643;DHT22;2334;48.710;9.622;2023-04-08T10:06:27;11.40;99.90
4643;DHT22;2334;48.710;9.622;2023-04-08T10:08:57;11.50;99.90
4643;DHT22;2334;48.710;9.622;2023-04-08T10:11:25;11.40;99.90
4643;DHT22;2334;48.710;9.622;2023-04-08T10:13:52;11.30;99.90
4643;DHT22;2334;48.710;9.622;2023-04-08T10:16:21;11.10;99.90
4643;DHT22;2334;48.710;9.622;2023-04-08T10:18:50;11.00;99.90
4643;DHT22;2334;48.710;9.622;2023-04-08T10:21:36;11.10;99.90
4643;DHT22;2334;48.710;9.622;2023-04-08T10:24:09;11.20;99.90
4643;DHT22;2334;48.710;9.622;2023-04-08T10:26:38;11.00;99.90
4643;DHT22;2334;48.710;9.622;2023-04-08T10:29:30;10.90;99.90
4643;DHT22;2334;48.710;9.622;2023-04-08T10:31:58;10.80;99.90
4643;DHT22;2334;48.710;9.622;2023-04-08T10:34:26;10.90;99.90
4643;DHT22;2334;48.710;9.622;2023-04-08T10:36:54;10.90;99.90
4643;DHT22;2334;48.710;9.622;2023-04-08T10:39:24;11.00;99.90
4643;DHT22;2334;48.710;9.622;2023-04-08T10:41:52;11.00;99.90
4643;DHT22;2334;48.710;9.622;2023-04-08T10:44:21;11.00;99.90
4643;DHT22;2334;48.710;9.622;2023-04-08T10:46:50;10.90;99.90
4643;DHT22;2334;48.710;9.622;2023-04-08T10:49:17;10.90;99.90
4643;DHT22;2334;48.710;9.622;2023-04-08T10:51:45;10.90;99.90
4643;DHT22;2334;48.710;9.622;2023-04-08T10:54:13;11.00;99.90
4643;DHT22;2334;48.710;9.622;2023-04-08T10:56:46;11.20;99.90
4643;DHT22;2334;48.710;9.622;2023-04-08T10:59:14;11.10;99.90
4643;DHT22;2334;48.710;9.622;2023-04-08T11:01:43;11.10;99.90
4643;DHT22;2334;48.710;9.622;2023-04-08T11:04:12;11.10;99.90
4643;DHT22;2334;48.710;9.622;2023-04-08T11:06:41;11.10;99.90
4643;DHT22;2334;48.710;9.622;2023-04-08T11:09:08;11.10;99.90
4643;DHT22;2334;48.710;9.622;2023-04-08T11:11:35;11.10;99.90
4643;DHT22;2334;48.710;9.622;2023-04-08T11:14:04;11.20;99.90
4643;DHT22;2334;48.710;9.622;2023-04-08T11:16:32;11.20;99.90
4643;DHT22;2334;48.710;9.622;2023-04-08T11:19:01;11.20;99.90
4643;DHT22;2334;48.710;9.622;2023-04-08T11:21:29;11.00;99.90
4643;DHT22;2334;48.710;9.622;2023-04-08T11:23:57;11.10;99.90
4643;DHT22;2334;48.710;9.622;2023-04-08T11:26:24;11.10;99.90
4643;DHT22;2334;48.710;9.622;2023-04-08T11:28:53;11.20;99.90
4643;DHT22;2334;48.710;9.622;2023-04-08T11:31:23;11.20;99.90
4643;DHT22;2334;48.710;9.622;2023-04-08T11:33:52;11.20;99.90
4643;DHT22;2334;48.710;9.622;2023-04-08T11:36:19;11.30;99.90
4643;DHT22;2334;48.710;9.622;2023-04-08T11:38:47;11.20;99.90
4643;DHT22;2334;48.710;9.622;2023-04-08T11:41:15;11.20;99.90
4643;DHT22;2334;48.710;9.622;2023-04-08T11:43:52;11.20;99.90
4643;DHT22;2334;48.710;9.622;2023-04-08T11:46:19;11.20;99.90
4643;DHT22;2334;48.710;9.622;2023-04-08T11:49:04;11.20;99.90
4643;DHT22;2334;48.710;9.622;2023-04-08T11:51:32;11.30;99.90
4643;DHT22;2334;48.710;9.622;2023-04-08T11:54:00;11.30;99.90
4643;DHT22;2334;48.710;9.622;2023-04-08T11:56:29;11.30;99.90
4643;DHT22;2334;48.710;9.622;2023-04-08T11:58:58;11.40;99.90
4643;DHT22;2334;48.710;9.622;2023-04-08T12:01:25;11.20;99.90
4643;DHT22;2334;48.710;9.622;2023-04-08T12:03:56;11.20;99.90
4643;DHT22;2334;48.710;9.622;2023-04-08T12:06:25;11.20;99.90
4643;DHT22;2334;48.710;9.622;2023-04-08T12:08:54;11.00;99.90
4643;DHT22;2334;48.710;9.622;2023-04-08T12:11:21;11.10;99.90
4643;DHT22;2334;48.710;9.622;2023-04-08T12:13:48;11.10;99.90
4643;DHT22;2334;48.710;9.622;2023-04-08T12:16:17;11.00;99.90
4643;DHT22;2334;48.710;9.622;2023-04-08T12:18:44;11.00;99.90
4643;DHT22;2334;48.710;9.622;2023-04-08T12:21:11;10.90;99.90
4643;DHT22;2334;48.710;9.622;2023-04-08T12:23:40;10.80;99.90
4643;DHT22;2334;48.710;9.622;2023-04-08T12:26:08;10.80;99.90
4643;DHT22;2334;48.710;9.622;2023-04-08T12:28:36;10.80;99.90
4643;DHT22;2334;48.710;9.622;2023-04-08T12:31:03;10.70;99.90
4643;DHT22;2334;48.710;9.622;2023-04-08T12:33:30;10.70;99.90
4643;DHT22;2334;48.710;9.622;2023-04-08T12:35:57;10.70;99.90
4643;DHT22;2334;48.710;9.622;2023-04-08T12:38:24;10.70;99.90
4643;DHT22;2334;48.710;9.622;2023-04-08T12:40:54;10.70;99.90
4643;DHT22;2334;48.710;9.622;2023-04-08T12:43:21;10.70;99.90
4643;DHT22;2334;48.710;9.622;2023-04-08T12:45:49;10.50;99.90
4643;DHT22;2334;48.710;9.622;2023-04-08T12:48:16;10.50;99.90
4643;DHT22;2334;48.710;9.622;2023-04-08T12:50:43;10.50;99.90
4643;DHT22;2334;48.710;9.622;2023-04-08T12:53:10;10.60;99.90
4643;DHT22;2334;48.710;9.622;2023-04-08T12:55:37;10.50;99.90
4643;DHT22;2334;48.710;9.622;2023-04-08T12:58:05;10.50;99.90
4643;DHT22;2334;48.710;9.622;2023-04-08T13:00:32;10.50;99.90
4643;DHT22;2334;48.710;9.622;2023-04-08T13:03:03;10.50;99.90
4643;DHT22;2334;48.710;9.622;2023-04-08T13:05:30;10.50;99.90
4643;DHT22;2334;48.710;9.622;2023-04-08T13:07:57;10.60;99.90
4643;DHT22;2334;48.710;9.622;2023-04-08T13:10:24;10.50;99.90
4643;DHT22;2334;48.710;9.622;2023-04-08T13:12:51;10.50;99.90
4643;DHT22;2334;48.710;9.622;2023-04-08T13:15:20;10.60;99.90
4643;DHT22;2334;48.710;9.622;2023-04-08T13:17:47;10.60;99.90
4643;DHT22;2334;48.710;9.622;2023-04-08T13:20:14;10.60;99.90
4643;DHT22;2334;48.710;9.622;2023-04-08T13:22:41;10.50;99.90
4643;DHT22;2334;48.710;9.622;2023-04-08T13:25:08;10.40;99.90
4643;DHT22;2334;48.710;9.622;2023-04-08T13:27:35;10.40;99.90
4643;DHT22;2334;48.710;9.622;2023-04-08T13:30:02;10.50;99.90
4643;DHT22;2334;48.710;9.622;2023-04-08T13:32:30;10.50;99.90
4643;DHT22;2334;48.710;9.622;2023-04-08T13:34:57;10.50;99.90
4643;DHT22;2334;48.710;9.622;2023-04-08T13:37:24;10.50;99.90
4643;DHT22;2334;48.710;9.622;2023-04-08T13:39:51;10.40;99.90
4643;DHT22;2334;48.710;9.622;2023-04-08T13:42:18;10.50;99.90
4643;DHT22;2334;48.710;9.622;2023-04-08T13:44:46;10.50;99.90
4643;DHT22;2334;48.710;9.622;2023-04-08T13:47:12;10.50;99.90
4643;DHT22;2334;48.710;9.622;2023-04-08T13:49:41;10.50;99.90
4643;DHT22;2334;48.710;9.622;2023-04-08T13:52:08;10.60;99.90
4643;DHT22;2334;48.710;9.622;2023-04-08T13:54:35;10.50;99.90
4643;DHT22;2334;48.710;9.622;2023-04-08T13:57:02;10.40;99.90
4643;DHT22;2334;48.710;9.622;2023-04-08T13:59:29;10.40;99.90
4643;DHT22;2334;48.710;9.622;2023-04-08T14:01:56;10.50;99.90
4643;DHT22;2334;48.710;9.622;2023-04-08T14:04:23;10.60;99.90
4643;DHT22;2334;48.710;9.622;2023-04-08T14:06:51;10.50;99.90
4643;DHT22;2334;48.710;9.622;2023-04-08T14:09:18;10.50;99.90
4643;DHT22;2334;48.710;9.622;2023-04-08T14:11:45;10.50;99.90
4643;DHT22;2334;48.710;9.622;2023-04-08T14:14:12;10.50;99.90
4643;DHT22;2334;48.710;9.622;2023-04-08T14:16:40;10.50;99.90
4643;DHT22;2334;48.710;9.622;2023-04-08T14:19:07;10.50;99.90
4643;DHT22;2334;48.710;9.622;2023-04-08T14:21:34;10.60;99.90
4643;DHT22;2334;48.710;9.622;2023-04-08T14:24:04;10.50;99.90
4643;DHT22;2334;48.710;9.622;2023-04-08T14:26:31;10.40;99.90
4643;DHT22;2334;48.710;9.622;2023-04-08T14:29:01;10.30;99.90
4643;DHT22;2334;48.710;9.622;2023-04-08T14:31:27;10.20;99.90
4643;DHT22;2334;48.710;9.622;2023-04-08T14:33:54;10.30;99.90
4643;DHT22;2334;48.710;9.622;2023-04-08T14:36:21;10.20;99.90
4643;DHT22;2334;48.710;9.622;2023-04-08T14:38:49;10.20;99.90
4643;DHT22;2334;48.710;9.622;2023-04-08T14:41:17;10.20;99.90
4643;DHT22;2334;48.710;9.622;2023-04-08T14:43:47;10.30;99.90
4643;DHT22;2334;48.710;9.622;2023-04-08T14:46:14;10.20;99.90
4643;DHT22;2334;48.710;9.622;2023-04-08T14:48:41;10.30;99.90
4643;DHT22;2334;48.710;9.622;2023-04-08T14:51:08;10.30;99.90
4643;DHT22;2334;48.710;9.622;2023-04-08T14:53:35;10.20;99.90
4643;DHT22;2334;48.710;9.622;2023-04-08T14:56:02;10.20;99.90
4643;DHT22;2334;48.710;9.622;2023-04-08T14:58:31;10.20;99.90
4643;DHT22;2334;48.710;9.622;2023-04-08T15:00:57;10.20;99.90
4643;DHT22;2334;48.710;9.622;2023-04-08T15:03:24;10.20;99.90
4643;DHT22;2334;48.710;9.622;2023-04-08T15:05:52;10.30;99.90
4643;DHT22;2334;48.710;9.622;2023-04-08T15:08:20;10.20;99.90
4643;DHT22;2334;48.710;9.622;2023-04-08T15:10:47;10.10;99.90
4643;DHT22;2334;48.710;9.622;2023-04-08T15:13:14;10.10;99.90
4643;DHT22;2334;48.710;9.622;2023-04-08T15:15:42;10.10;99.90
4643;DHT22;2334;48.710;9.622;2023-04-08T15:18:09;10.10;99.90
4643;DHT22;2334;48.710;9.622;2023-04-08T15:20:36;10.00;99.90
4643;DHT22;2334;48.710;9.622;2023-04-08T15:23:03;10.00;99.90
4643;DHT22;2334;48.710;9.622;2023-04-08T15:25:30;10.00;99.90
4643;DHT22;2334;48.710;9.622;2023-04-08T15:27:57;10.00;99.90
4643;DHT22;2334;48.710;9.622;2023-04-08T15:30:24;9.80;99.90
4643;DHT22;2334;48.710;9.622;2023-04-08T15:32:53;9.80;99.90
4643;DHT22;2334;48.710;9.622;2023-04-08T15:35:20;9.70;99.90
4643;DHT22;2334;48.710;9.622;2023-04-08T15:37:47;9.60;99.90
4643;DHT22;2334;48.710;9.622;2023-04-08T15:40:14;9.60;99.90
4643;DHT22;2334;48.710;9.622;2023-04-08T15:42:41;9.60;99.90
4643;DHT22;2334;48.710;9.622;2023-04-08T15:45:09;9.60;99.90
4643;DHT22;2334;48.710;9.622;2023-04-08T15:47:36;9.50;99.90
4643;DHT22;2334;48.710;9.622;2023-04-08T15:50:06;9.50;99.90
4643;DHT22;2334;48.710;9.622;2023-04-08T15:52:34;9.50;99.90
4643;DHT22;2334;48.710;9.622;2023-04-08T15:55:01;9.50;99.90
4643;DHT22;2334;48.710;9.622;2023-04-08T15:57:28;9.60;99.90
4643;DHT22;2334;48.710;9.622;2023-04-08T15:59:56;9.60;99.90
4643;DHT22;2334;48.710;9.622;2023-04-08T16:02:23;9.60;99.90
4643;DHT22;2334;48.710;9.622;2023-04-08T16:04:50;9.50;99.90
4643;DHT22;2334;48.710;9.622;2023-04-08T16:07:18;9.50;99.90
4643;DHT22;2334;48.710;9.622;2023-04-08T16:09:45;9.40;99.90
4643;DHT22;2334;48.710;9.622;2023-04-08T16:12:12;9.40;99.90
4643;DHT22;2334;48.710;9.622;2023-04-08T16:14:40;9.40;99.90
4643;DHT22;2334;48.710;9.622;2023-04-08T16:17:07;9.40;99.90